Pagina principale
METAR-TAF:

METAR-TAF

Aeroporti :

Grazzanise, Italia

latitudine: 41-03N, longitudine: 014-04E, altezza: 9 m

Osservazione

Il bollettino è stato emesso 56 minuti fa, alle 15:55 UTC
Vento 6 kt da sud-ovest
Temperature 20°C
Umidità 78%
Pressione 1016 hPa
Visibilità 10 km o più
nessuna nube inferiore a 1500 m e nessun cumulonembo

METAR: LIRM 151555Z 22006KT CAVOK 20/16 Q1016 RMK BKN SCT100 VIS MIN 9999 WIND THR06 26007KT BLU

Ora: 18:51 (16:51 UTC)

Previsione

Il bollettino è stato emesso 11 ore e 51 minuti fa, alle 05:00 UTC
Previsione valida dal 15 alle 06 UTC al 15 alle 15 UTC
Vento 3 kt da nord
Visibilità 10 km o più
nessuna nube inferiore a 1500 m e nessun cumulonembo
Temporaneamente
dal 15 alle 11 UTC al 15 alle 15 UTC
Vento 10 kt da sud-ovest

TAF: LIRM 150500Z 1506/1515 35003KT CAVOK TEMPO 1511/1515 22010KT

Osservazioni e previsioni meteorologiche di più di 4000 aeroporti (messaggi METAR e TAF).

Le stazioni disponibili sono rappresentate dai dischi gialli e rossi sulla carta.

Puntare il mouse per vedere il nome della stazione.

Clicca sopra per visualizzare le osservazioni e previsioni meteorologiche.

Per cambiare la mappa : fare clic sui pulsanti verdi con una croce nera per ingrandire, il pulsante verde con un trattino per diminuire, o sulla freccia verde per le mappe adiacenti.


METAR-TAF: